Seabourn Odyssey — C6XC6 — position and weather

sailwx.info

Track history (hours):
 
Tides and Currents Weather Stations Pressure Air Temp Water Temp Dewpoint Dewpoint Depression Visibility Wind Speed Wind Dir Waves Ship Positions

Seabourn Odyssey

Last reported at 2019-Jul-20 01:01 UTC. Time now 2019-Jul-20 01:24 UTC.
Position N 37°47' E 023°41'.

Length 198 m; draft 6.7 m.

Type: Ship. MMSI: 309416000.

Date/timePositionNaut miles runAvg speedWind from/ knotsBaromVisibWave heightAir tempDewpointWater temp
2019-Jul-20 01:01N 37°47' E 023°41'714.6
2019-Jul-20 00:30N 37°41' E 023°45'714.3
2019-Jul-20 00:00N 37°34' E 023°47'1014.4
2019-Jul-19 23:18N 37°24' E 023°50'45 7.4
2019-Jul-19 17:16N 37°19' E 024°45'2 8.8
2019-Jul-19 17:00N 37°19' E 024°48'4 8.5
2019-Jul-19 16:30N 37°20' E 024°53'4 8.4
2019-Jul-19 16:01N 37°21' E 024°58'4 7.3
2019-Jul-19 15:30N 37°24' E 025°01'4 7.1
2019-Jul-19 15:00N 37°26' E 024°58'1 0.1
2019-Jul-19 05:11N 37°26' E 024°57'0 0.0
2019-Jul-19 04:17N 37°26' E 024°57'0 1.0
2019-Jul-19 03:59N 37°26' E 024°57'2 4.1
2019-Jul-19 03:30N 37°26' E 024°59'713.2
2019-Jul-19 03:00N 37°23' E 025°06'714.2
2019-Jul-19 02:30N 37°19' E 025°14'815.0
2019-Jul-19 02:00N 37°17' E 025°23'815.0
2019-Jul-19 01:30N 37°14' E 025°32'714.6
2019-Jul-19 01:00N 37°12' E 025°41'  
2019-Jul-10 15:30N 37°03' E 023°17'713.7
2019-Jul-10 15:00N 37°09' E 023°15'713.1
2019-Jul-10 14:29N 37°16' E 023°12'8328.5
2019-Jul-10 11:33N 37°19' E 024°56'8411.1
2019-Jul-10 03:57N 37°16' E 023°11'614.5
2019-Jul-10 03:30N 37°12' E 023°17'915.1
2019-Jul-10 02:55N 37°06' E 023°26'714.7
2019-Jul-10 02:28N 37°02' E 023°32'2014.7
2019-Jul-10 01:05N 36°48' E 023°50'114.3
2019-Jul-10 01:01N 36°47' E 023°51'  
Track history (hours):
 
Tides and Currents Weather Stations Pressure Air Temp Water Temp Dewpoint Dewpoint Depression Visibility Wind Speed Wind Dir Waves Ship Positions

Seabourn Odyssey

Last reported at 2019-Jul-20 01:01 UTC. Time now 2019-Jul-20 01:24 UTC.
Position N 37°47' E 023°41'.

Length 198 m; draft 6.7 m.

Type: Ship. MMSI: 309416000.

Date/timePositionNaut miles runAvg speedWind from/ knotsBaromVisibWave heightAir tempDewpointWater temp
2019-Jul-20 01:01N 37°47' E 023°41'714.6
2019-Jul-20 00:30N 37°41' E 023°45'714.3
2019-Jul-20 00:00N 37°34' E 023°47'1014.4
2019-Jul-19 23:18N 37°24' E 023°50'45 7.4
2019-Jul-19 17:16N 37°19' E 024°45'2 8.8
2019-Jul-19 17:00N 37°19' E 024°48'4 8.5
2019-Jul-19 16:30N 37°20' E 024°53'4 8.4
2019-Jul-19 16:01N 37°21' E 024°58'4 7.3
2019-Jul-19 15:30N 37°24' E 025°01'4 7.1
2019-Jul-19 15:00N 37°26' E 024°58'1 0.1
2019-Jul-19 05:11N 37°26' E 024°57'0 0.0
2019-Jul-19 04:17N 37°26' E 024°57'0 1.0
2019-Jul-19 03:59N 37°26' E 024°57'2 4.1
2019-Jul-19 03:30N 37°26' E 024°59'713.2
2019-Jul-19 03:00N 37°23' E 025°06'714.2
2019-Jul-19 02:30N 37°19' E 025°14'815.0
2019-Jul-19 02:00N 37°17' E 025°23'815.0
2019-Jul-19 01:30N 37°14' E 025°32'714.6
2019-Jul-19 01:00N 37°12' E 025°41'  
2019-Jul-10 15:30N 37°03' E 023°17'713.7
2019-Jul-10 15:00N 37°09' E 023°15'713.1
2019-Jul-10 14:29N 37°16' E 023°12'8328.5
2019-Jul-10 11:33N 37°19' E 024°56'8411.1
2019-Jul-10 03:57N 37°16' E 023°11'614.5
2019-Jul-10 03:30N 37°12' E 023°17'915.1
2019-Jul-10 02:55N 37°06' E 023°26'714.7
2019-Jul-10 02:28N 37°02' E 023°32'2014.7
2019-Jul-10 01:05N 36°48' E 023°50'114.3
2019-Jul-10 01:01N 36°47' E 023°51'  

Dump ship's entire track history